Maupin, Oregon
Current Conditions -  °F | °C
As of 4:53 PM on Friday 24 Oct 2014 (Local Time) from KDLS Reporting Station
Light Rain Light Rain  
Wind Chill: 52°   Ceiling: 3700
Heat Index: 52°   Visibility: 8mi
Dew Point: 49°   Wind: 3mph
Humidity: 89%   Direction: 240°WSW
Pressure: 29.96"   Gusts: NA
Location:  45.18°N, 121.08°W
Report Text: KDLS 242353Z AUTO 24003KT 8SM -RA FEW016 OVC037 11/09 A2996 RMK AO2 SLP147 P0006 60015 T01110094 10122 20106 58010
Loading
Personal Weather Stations






























Interactive Weather Map
Tropical Storm Tracking
New forecast layout! Learn more

10-Day Weather Forecast

Advertisements
Track Severe Weather on mobile